sensor_id;sensor_type;location;lat;lon;timestamp;pressure;altitude;pressure_sealevel;temperature;humidity
16481;BME280;44634;54.110;12.138;2023-04-28T00:00:36;101759.78;;;8.48;100.00
16481;BME280;44634;54.110;12.138;2023-04-28T00:03:04;101761.38;;;8.51;100.00
16481;BME280;44634;54.110;12.138;2023-04-28T00:05:32;101766.53;;;8.11;100.00
16481;BME280;44634;54.110;12.138;2023-04-28T00:08:00;101768.19;;;8.41;100.00
16481;BME280;44634;54.110;12.138;2023-04-28T00:10:29;101770.66;;;8.15;100.00
16481;BME280;44634;54.110;12.138;2023-04-28T00:12:57;101761.56;;;8.33;100.00
16481;BME280;44634;54.110;12.138;2023-04-28T00:15:25;101773.41;;;7.99;100.00
16481;BME280;44634;54.110;12.138;2023-04-28T00:17:54;101756.28;;;7.92;100.00
16481;BME280;44634;54.110;12.138;2023-04-28T00:20:22;101733.13;;;7.12;100.00
16481;BME280;44634;54.110;12.138;2023-04-28T00:22:50;101696.22;;;7.13;100.00
16481;BME280;44634;54.110;12.138;2023-04-28T00:25:17;101672.06;;;7.21;100.00
16481;BME280;44634;54.110;12.138;2023-04-28T00:27:45;101676.66;;;7.18;100.00
16481;BME280;44634;54.110;12.138;2023-04-28T00:30:13;101659.50;;;7.26;100.00
16481;BME280;44634;54.110;12.138;2023-04-28T00:32:41;101659.59;;;7.39;100.00
16481;BME280;44634;54.110;12.138;2023-04-28T00:35:10;101684.75;;;7.57;100.00
16481;BME280;44634;54.110;12.138;2023-04-28T00:37:38;101676.38;;;7.36;100.00
16481;BME280;44634;54.110;12.138;2023-04-28T00:40:07;101663.22;;;7.08;100.00
16481;BME280;44634;54.110;12.138;2023-04-28T00:42:34;101648.00;;;6.84;100.00
16481;BME280;44634;54.110;12.138;2023-04-28T00:45:03;101623.56;;;6.38;100.00
16481;BME280;44634;54.110;12.138;2023-04-28T00:47:32;101618.34;;;7.11;100.00
16481;BME280;44634;54.110;12.138;2023-04-28T00:50:00;101651.53;;;6.69;100.00
16481;BME280;44634;54.110;12.138;2023-04-28T00:52:30;101629.19;;;6.76;100.00
16481;BME280;44634;54.110;12.138;2023-04-28T00:54:58;101631.84;;;7.47;100.00
16481;BME280;44634;54.110;12.138;2023-04-28T00:57:26;101648.94;;;6.98;100.00
16481;BME280;44634;54.110;12.138;2023-04-28T00:59:53;101623.59;;;6.82;100.00
16481;BME280;44634;54.110;12.138;2023-04-28T01:02:21;101593.56;;;6.42;100.00
16481;BME280;44634;54.110;12.138;2023-04-28T01:04:50;101585.38;;;6.91;100.00
16481;BME280;44634;54.110;12.138;2023-04-28T01:07:19;101604.47;;;7.09;100.00
16481;BME280;44634;54.110;12.138;2023-04-28T01:09:49;101620.78;;;7.28;100.00
16481;BME280;44634;54.110;12.138;2023-04-28T01:12:16;101638.03;;;6.90;100.00
16481;BME280;44634;54.110;12.138;2023-04-28T01:14:44;101632.69;;;6.91;100.00
16481;BME280;44634;54.110;12.138;2023-04-28T01:17:12;101640.69;;;7.04;100.00
16481;BME280;44634;54.110;12.138;2023-04-28T01:19:41;101645.16;;;6.88;100.00
16481;BME280;44634;54.110;12.138;2023-04-28T01:22:08;101653.63;;;7.07;100.00
16481;BME280;44634;54.110;12.138;2023-04-28T01:24:40;101676.84;;;7.14;100.00
16481;BME280;44634;54.110;12.138;2023-04-28T01:27:08;101687.25;;;7.02;100.00
16481;BME280;44634;54.110;12.138;2023-04-28T01:29:36;101679.38;;;7.02;100.00
16481;BME280;44634;54.110;12.138;2023-04-28T01:32:04;101652.75;;;6.78;100.00
16481;BME280;44634;54.110;12.138;2023-04-28T01:34:32;101645.47;;;6.97;100.00
16481;BME280;44634;54.110;12.138;2023-04-28T01:37:00;101665.94;;;6.62;100.00
16481;BME280;44634;54.110;12.138;2023-04-28T01:39:27;101641.59;;;6.89;100.00
16481;BME280;44634;54.110;12.138;2023-04-28T01:41:56;101649.16;;;6.95;100.00
16481;BME280;44634;54.110;12.138;2023-04-28T01:44:24;101666.44;;;6.39;100.00
16481;BME280;44634;54.110;12.138;2023-04-28T01:46:52;101638.47;;;6.38;100.00
16481;BME280;44634;54.110;12.138;2023-04-28T01:49:20;101634.22;;;6.95;100.00
16481;BME280;44634;54.110;12.138;2023-04-28T01:51:48;101633.09;;;6.25;100.00
16481;BME280;44634;54.110;12.138;2023-04-28T01:54:16;101615.94;;;6.78;100.00
16481;BME280;44634;54.110;12.138;2023-04-28T01:56:44;101614.53;;;6.72;100.00
16481;BME280;44634;54.110;12.138;2023-04-28T01:59:13;101634.22;;;6.51;100.00
16481;BME280;44634;54.110;12.138;2023-04-28T02:01:41;101615.41;;;6.13;100.00
16481;BME280;44634;54.110;12.138;2023-04-28T02:04:09;101565.00;;;6.06;100.00
16481;BME280;44634;54.110;12.138;2023-04-28T02:06:37;101535.50;;;5.55;100.00
16481;BME280;44634;54.110;12.138;2023-04-28T02:09:04;101527.34;;;5.76;100.00
16481;BME280;44634;54.110;12.138;2023-04-28T02:11:32;101529.56;;;5.83;100.00
16481;BME280;44634;54.110;12.138;2023-04-28T02:14:00;101527.66;;;5.55;100.00
16481;BME280;44634;54.110;12.138;2023-04-28T02:16:29;101520.44;;;6.35;100.00
16481;BME280;44634;54.110;12.138;2023-04-28T02:18:58;101531.56;;;6.10;100.00
16481;BME280;44634;54.110;12.138;2023-04-28T02:21:26;101558.00;;;6.65;100.00
16481;BME280;44634;54.110;12.138;2023-04-28T02:23:54;101594.75;;;6.67;100.00
16481;BME280;44634;54.110;12.138;2023-04-28T02:26:22;101618.91;;;6.57;100.00
16481;BME280;44634;54.110;12.138;2023-04-28T02:28:49;101619.25;;;6.37;100.00
16481;BME280;44634;54.110;12.138;2023-04-28T02:31:17;101614.78;;;6.23;100.00
16481;BME280;44634;54.110;12.138;2023-04-28T02:33:47;101616.34;;;6.12;100.00
16481;BME280;44634;54.110;12.138;2023-04-28T02:36:14;101611.03;;;6.28;100.00
16481;BME280;44634;54.110;12.138;2023-04-28T02:38:42;101623.38;;;6.41;100.00
16481;BME280;44634;54.110;12.138;2023-04-28T02:41:10;101636.66;;;6.54;100.00
16481;BME280;44634;54.110;12.138;2023-04-28T02:43:38;101656.13;;;6.66;100.00
16481;BME280;44634;54.110;12.138;2023-04-28T02:46:06;101653.66;;;6.63;100.00
16481;BME280;44634;54.110;12.138;2023-04-28T02:48:34;101658.38;;;6.72;100.00
16481;BME280;44634;54.110;12.138;2023-04-28T02:51:04;101659.72;;;6.93;100.00
16481;BME280;44634;54.110;12.138;2023-04-28T02:53:32;101668.16;;;6.84;100.00
16481;BME280;44634;54.110;12.138;2023-04-28T02:55:59;101679.50;;;6.70;100.00
16481;BME280;44634;54.110;12.138;2023-04-28T02:58:29;101674.53;;;6.50;100.00
16481;BME280;44634;54.110;12.138;2023-04-28T03:00:57;101665.38;;;6.57;100.00
16481;BME280;44634;54.110;12.138;2023-04-28T03:03:25;101660.25;;;6.70;100.00
16481;BME280;44634;54.110;12.138;2023-04-28T03:05:53;101669.25;;;6.66;100.00
16481;BME280;44634;54.110;12.138;2023-04-28T03:08:23;101667.56;;;6.03;100.00
16481;BME280;44634;54.110;12.138;2023-04-28T03:10:51;101639.50;;;5.88;100.00
16481;BME280;44634;54.110;12.138;2023-04-28T03:13:19;101650.16;;;6.32;100.00
16481;BME280;44634;54.110;12.138;2023-04-28T03:15:47;101652.19;;;6.43;100.00
16481;BME280;44634;54.110;12.138;2023-04-28T03:18:14;101662.13;;;6.22;100.00
16481;BME280;44634;54.110;12.138;2023-04-28T03:20:42;101656.34;;;6.31;100.00
16481;BME280;44634;54.110;12.138;2023-04-28T03:23:10;101650.00;;;5.88;100.00
16481;BME280;44634;54.110;12.138;2023-04-28T03:25:39;101630.88;;;6.17;100.00
16481;BME280;44634;54.110;12.138;2023-04-28T03:28:07;101642.13;;;5.88;100.00
16481;BME280;44634;54.110;12.138;2023-04-28T03:30:36;101629.69;;;6.07;100.00
16481;BME280;44634;54.110;12.138;2023-04-28T03:33:03;101627.78;;;6.11;100.00
16481;BME280;44634;54.110;12.138;2023-04-28T03:35:32;101621.75;;;6.09;100.00
16481;BME280;44634;54.110;12.138;2023-04-28T03:38:00;101632.66;;;6.17;100.00
16481;BME280;44634;54.110;12.138;2023-04-28T03:40:27;101630.09;;;6.31;100.00
16481;BME280;44634;54.110;12.138;2023-04-28T03:42:57;101641.38;;;5.86;100.00
16481;BME280;44634;54.110;12.138;2023-04-28T03:45:25;101623.69;;;5.74;100.00
16481;BME280;44634;54.110;12.138;2023-04-28T03:47:52;101610.16;;;5.97;100.00
16481;BME280;44634;54.110;12.138;2023-04-28T03:50:20;101631.16;;;6.43;100.00
16481;BME280;44634;54.110;12.138;2023-04-28T03:52:51;101612.59;;;6.16;100.00
16481;BME280;44634;54.110;12.138;2023-04-28T03:55:19;101619.13;;;5.93;100.00
16481;BME280;44634;54.110;12.138;2023-04-28T03:57:47;101621.50;;;6.13;100.00
16481;BME280;44634;54.110;12.138;2023-04-28T04:00:16;101591.63;;;6.00;100.00
16481;BME280;44634;54.110;12.138;2023-04-28T04:02:44;101617.09;;;5.98;100.00
16481;BME280;44634;54.110;12.138;2023-04-28T04:05:12;101628.19;;;6.03;100.00
16481;BME280;44634;54.110;12.138;2023-04-28T04:07:40;101639.16;;;6.41;100.00
16481;BME280;44634;54.110;12.138;2023-04-28T04:10:08;101660.66;;;6.32;100.00
16481;BME280;44634;54.110;12.138;2023-04-28T04:12:36;101669.09;;;6.23;100.00
16481;BME280;44634;54.110;12.138;2023-04-28T04:15:05;101653.63;;;5.54;100.00
16481;BME280;44634;54.110;12.138;2023-04-28T04:17:34;101630.78;;;5.40;100.00
16481;BME280;44634;54.110;12.138;2023-04-28T04:20:02;101603.22;;;5.64;100.00
16481;BME280;44634;54.110;12.138;2023-04-28T04:22:30;101594.69;;;5.12;100.00
16481;BME280;44634;54.110;12.138;2023-04-28T04:24:58;101575.44;;;5.45;100.00
16481;BME280;44634;54.110;12.138;2023-04-28T04:27:26;101566.22;;;5.22;100.00
16481;BME280;44634;54.110;12.138;2023-04-28T04:29:53;101551.56;;;5.33;100.00
16481;BME280;44634;54.110;12.138;2023-04-28T04:32:21;101543.03;;;5.30;100.00
16481;BME280;44634;54.110;12.138;2023-04-28T04:34:50;101530.19;;;5.25;100.00
16481;BME280;44634;54.110;12.138;2023-04-28T04:37:18;101520.53;;;5.42;100.00
16481;BME280;44634;54.110;12.138;2023-04-28T04:39:46;101538.41;;;5.51;100.00
16481;BME280;44634;54.110;12.138;2023-04-28T04:42:14;101545.44;;;5.50;100.00
16481;BME280;44634;54.110;12.138;2023-04-28T04:44:51;101537.75;;;5.77;100.00
16481;BME280;44634;54.110;12.138;2023-04-28T04:47:18;101567.06;;;5.85;100.00
16481;BME280;44634;54.110;12.138;2023-04-28T04:49:47;101572.41;;;6.00;100.00
16481;BME280;44634;54.110;12.138;2023-04-28T04:52:17;101579.22;;;6.62;100.00
16481;BME280;44634;54.110;12.138;2023-04-28T04:54:45;101598.91;;;7.13;100.00
16481;BME280;44634;54.110;12.138;2023-04-28T04:57:13;101614.47;;;7.31;100.00
16481;BME280;44634;54.110;12.138;2023-04-28T04:59:40;101630.44;;;7.56;100.00
16481;BME280;44634;54.110;12.138;2023-04-28T05:02:08;101634.44;;;7.76;100.00
16481;BME280;44634;54.110;12.138;2023-04-28T05:04:36;101651.50;;;7.56;100.00
16481;BME280;44634;54.110;12.138;2023-04-28T05:07:04;101638.19;;;7.86;100.00
16481;BME280;44634;54.110;12.138;2023-04-28T05:09:33;101642.66;;;8.40;100.00
16481;BME280;44634;54.110;12.138;2023-04-28T05:12:01;101650.38;;;8.55;100.00
16481;BME280;44634;54.110;12.138;2023-04-28T05:14:29;101654.00;;;8.92;100.00
16481;BME280;44634;54.110;12.138;2023-04-28T05:16:57;101671.06;;;8.61;100.00
16481;BME280;44634;54.110;12.138;2023-04-28T05:19:25;101658.56;;;8.24;100.00
16481;BME280;44634;54.110;12.138;2023-04-28T05:21:52;101664.13;;;7.92;100.00
16481;BME280;44634;54.110;12.138;2023-04-28T05:24:20;101650.63;;;8.38;100.00
16481;BME280;44634;54.110;12.138;2023-04-28T05:26:50;101661.75;;;8.29;100.00
16481;BME280;44634;54.110;12.138;2023-04-28T05:29:19;101663.56;;;8.28;100.00
16481;BME280;44634;54.110;12.138;2023-04-28T05:31:47;101649.81;;;8.50;100.00
16481;BME280;44634;54.110;12.138;2023-04-28T05:34:15;101659.59;;;8.75;100.00
16481;BME280;44634;54.110;12.138;2023-04-28T05:36:43;101660.69;;;8.46;100.00
16481;BME280;44634;54.110;12.138;2023-04-28T05:39:11;101660.88;;;8.95;100.00
16481;BME280;44634;54.110;12.138;2023-04-28T05:41:39;101665.38;;;8.80;100.00
16481;BME280;44634;54.110;12.138;2023-04-28T05:44:08;101660.41;;;8.63;100.00
16481;BME280;44634;54.110;12.138;2023-04-28T05:46:36;101668.59;;;8.46;100.00
16481;BME280;44634;54.110;12.138;2023-04-28T05:49:04;101666.56;;;8.76;100.00
16481;BME280;44634;54.110;12.138;2023-04-28T05:51:32;101663.31;;;9.11;100.00
16481;BME280;44634;54.110;12.138;2023-04-28T05:54:00;101663.91;;;9.40;100.00
16481;BME280;44634;54.110;12.138;2023-04-28T05:56:28;101675.66;;;8.98;100.00
16481;BME280;44634;54.110;12.138;2023-04-28T05:58:56;101666.16;;;9.08;100.00
16481;BME280;44634;54.110;12.138;2023-04-28T06:01:25;101659.59;;;9.51;100.00
16481;BME280;44634;54.110;12.138;2023-04-28T06:03:53;101672.75;;;9.77;100.00
16481;BME280;44634;54.110;12.138;2023-04-28T06:06:23;101686.50;;;9.69;100.00
16481;BME280;44634;54.110;12.138;2023-04-28T06:08:52;101687.31;;;9.82;100.00
16481;BME280;44634;54.110;12.138;2023-04-28T06:11:19;101683.94;;;9.80;100.00
16481;BME280;44634;54.110;12.138;2023-04-28T06:13:48;101685.19;;;10.24;100.00
16481;BME280;44634;54.110;12.138;2023-04-28T06:16:17;101690.41;;;9.76;100.00
16481;BME280;44634;54.110;12.138;2023-04-28T06:18:46;101700.34;;;10.09;100.00
16481;BME280;44634;54.110;12.138;2023-04-28T06:21:15;101697.84;;;9.95;100.00
16481;BME280;44634;54.110;12.138;2023-04-28T06:23:43;101702.84;;;10.24;100.00
16481;BME280;44634;54.110;12.138;2023-04-28T06:26:11;101702.25;;;10.44;100.00
16481;BME280;44634;54.110;12.138;2023-04-28T06:28:41;101696.03;;;10.45;100.00
16481;BME280;44634;54.110;12.138;2023-04-28T06:31:09;101706.19;;;10.38;100.00
16481;BME280;44634;54.110;12.138;2023-04-28T06:33:37;101700.88;;;10.62;100.00
16481;BME280;44634;54.110;12.138;2023-04-28T06:36:06;101695.06;;;10.81;100.00
16481;BME280;44634;54.110;12.138;2023-04-28T06:38:34;101692.28;;;10.11;100.00
16481;BME280;44634;54.110;12.138;2023-04-28T06:41:02;101695.13;;;10.68;100.00
16481;BME280;44634;54.110;12.138;2023-04-28T06:43:30;101703.59;;;10.26;100.00
16481;BME280;44634;54.110;12.138;2023-04-28T06:45:58;101697.00;;;9.95;100.00
16481;BME280;44634;54.110;12.138;2023-04-28T06:48:26;101686.94;;;10.36;100.00
16481;BME280;44634;54.110;12.138;2023-04-28T06:50:54;101691.91;;;11.22;100.00
16481;BME280;44634;54.110;12.138;2023-04-28T06:53:23;101689.16;;;11.24;100.00
16481;BME280;44634;54.110;12.138;2023-04-28T06:55:51;101695.91;;;10.47;100.00
16481;BME280;44634;54.110;12.138;2023-04-28T06:58:19;101698.75;;;11.02;100.00
16481;BME280;44634;54.110;12.138;2023-04-28T07:00:47;101695.69;;;10.96;100.00
16481;BME280;44634;54.110;12.138;2023-04-28T07:03:15;101692.78;;;11.45;100.00
16481;BME280;44634;54.110;12.138;2023-04-28T07:05:43;101689.84;;;11.03;100.00
16481;BME280;44634;54.110;12.138;2023-04-28T07:08:10;101693.13;;;11.41;100.00
16481;BME280;44634;54.110;12.138;2023-04-28T07:10:40;101694.34;;;11.48;100.00
16481;BME280;44634;54.110;12.138;2023-04-28T07:13:08;101698.06;;;11.56;100.00
16481;BME280;44634;54.110;12.138;2023-04-28T07:15:36;101701.38;;;11.14;100.00
16481;BME280;44634;54.110;12.138;2023-04-28T07:18:04;101701.81;;;11.76;100.00
16481;BME280;44634;54.110;12.138;2023-04-28T07:20:33;101697.34;;;11.54;100.00
16481;BME280;44634;54.110;12.138;2023-04-28T07:23:00;101692.19;;;11.53;100.00
16481;BME280;44634;54.110;12.138;2023-04-28T07:25:28;101687.59;;;12.00;100.00
16481;BME280;44634;54.110;12.138;2023-04-28T07:27:57;101693.13;;;12.08;100.00
16481;BME280;44634;54.110;12.138;2023-04-28T07:30:25;101675.59;;;13.01;100.00
16481;BME280;44634;54.110;12.138;2023-04-28T07:32:54;101671.94;;;12.93;100.00
16481;BME280;44634;54.110;12.138;2023-04-28T07:35:22;101668.94;;;13.07;98.80
16481;BME280;44634;54.110;12.138;2023-04-28T07:37:50;101675.78;;;13.21;100.00
16481;BME280;44634;54.110;12.138;2023-04-28T07:40:18;101659.75;;;13.72;100.00
16481;BME280;44634;54.110;12.138;2023-04-28T07:42:46;101677.69;;;12.77;85.02
16481;BME280;44634;54.110;12.138;2023-04-28T07:45:15;101676.84;;;12.76;76.89
16481;BME280;44634;54.110;12.138;2023-04-28T07:47:43;101674.09;;;13.20;75.58
16481;BME280;44634;54.110;12.138;2023-04-28T07:50:11;101677.50;;;12.37;73.18
16481;BME280;44634;54.110;12.138;2023-04-28T07:52:39;101675.06;;;12.45;69.03
16481;BME280;44634;54.110;12.138;2023-04-28T07:55:07;101671.44;;;13.20;66.47
16481;BME280;44634;54.110;12.138;2023-04-28T07:57:35;101673.56;;;13.05;63.64
16481;BME280;44634;54.110;12.138;2023-04-28T08:00:04;101670.28;;;13.01;65.49
16481;BME280;44634;54.110;12.138;2023-04-28T08:02:33;101667.97;;;13.08;66.99
16481;BME280;44634;54.110;12.138;2023-04-28T08:05:01;101662.53;;;12.47;68.61
16481;BME280;44634;54.110;12.138;2023-04-28T08:07:30;101667.66;;;12.80;68.01
16481;BME280;44634;54.110;12.138;2023-04-28T08:09:57;101664.44;;;13.19;69.24
16481;BME280;44634;54.110;12.138;2023-04-28T08:12:26;101658.50;;;13.15;68.44
16481;BME280;44634;54.110;12.138;2023-04-28T08:14:54;101653.34;;;13.84;62.10
16481;BME280;44634;54.110;12.138;2023-04-28T08:17:22;101654.34;;;13.83;64.29
16481;BME280;44634;54.110;12.138;2023-04-28T08:19:51;101671.16;;;14.03;59.35
16481;BME280;44634;54.110;12.138;2023-04-28T08:22:19;101659.09;;;13.39;55.92
16481;BME280;44634;54.110;12.138;2023-04-28T08:24:46;101658.53;;;13.76;53.83
16481;BME280;44634;54.110;12.138;2023-04-28T08:27:14;101656.63;;;13.27;50.61
16481;BME280;44634;54.110;12.138;2023-04-28T08:29:42;101657.31;;;13.50;48.81
16481;BME280;44634;54.110;12.138;2023-04-28T08:32:10;101661.47;;;13.83;48.37
16481;BME280;44634;54.110;12.138;2023-04-28T08:34:38;101663.38;;;13.71;48.52
16481;BME280;44634;54.110;12.138;2023-04-28T08:37:07;101656.69;;;14.46;48.23
16481;BME280;44634;54.110;12.138;2023-04-28T08:39:34;101657.41;;;13.79;47.15
16481;BME280;44634;54.110;12.138;2023-04-28T08:42:02;101654.53;;;14.11;46.64
16481;BME280;44634;54.110;12.138;2023-04-28T08:44:35;101646.44;;;14.61;47.22
16481;BME280;44634;54.110;12.138;2023-04-28T08:47:10;101635.69;;;15.18;46.16
16481;BME280;44634;54.110;12.138;2023-04-28T08:49:39;101637.50;;;15.55;44.19
16481;BME280;44634;54.110;12.138;2023-04-28T08:52:11;101650.38;;;14.37;44.93
16481;BME280;44634;54.110;12.138;2023-04-28T08:54:39;101638.63;;;14.49;44.55
16481;BME280;44634;54.110;12.138;2023-04-28T08:57:08;101650.38;;;14.76;43.88
16481;BME280;44634;54.110;12.138;2023-04-28T08:59:38;101641.13;;;14.61;44.02
16481;BME280;44634;54.110;12.138;2023-04-28T09:02:07;101635.09;;;14.68;44.21
16481;BME280;44634;54.110;12.138;2023-04-28T09:04:35;101628.94;;;14.58;42.70
16481;BME280;44634;54.110;12.138;2023-04-28T09:07:11;101629.66;;;14.60;42.90
16481;BME280;44634;54.110;12.138;2023-04-28T09:09:39;101622.63;;;14.69;43.54
16481;BME280;44634;54.110;12.138;2023-04-28T09:12:07;101615.25;;;14.63;44.57
16481;BME280;44634;54.110;12.138;2023-04-28T09:14:36;101618.38;;;15.32;45.08
16481;BME280;44634;54.110;12.138;2023-04-28T09:17:09;101609.25;;;15.90;43.76
16481;BME280;44634;54.110;12.138;2023-04-28T09:19:38;101610.31;;;15.24;43.35
16481;BME280;44634;54.110;12.138;2023-04-28T09:22:08;101618.25;;;14.87;44.08
16481;BME280;44634;54.110;12.138;2023-04-28T09:24:53;101610.84;;;15.28;42.85
16481;BME280;44634;54.110;12.138;2023-04-28T09:27:26;101604.88;;;15.43;44.50
16481;BME280;44634;54.110;12.138;2023-04-28T09:29:54;101604.69;;;15.82;43.04
16481;BME280;44634;54.110;12.138;2023-04-28T09:32:22;101595.41;;;16.04;43.52
16481;BME280;44634;54.110;12.138;2023-04-28T09:34:52;101591.53;;;16.16;42.46
16481;BME280;44634;54.110;12.138;2023-04-28T09:37:24;101601.13;;;15.36;41.30
16481;BME280;44634;54.110;12.138;2023-04-28T09:39:54;101589.16;;;15.95;41.26
16481;BME280;44634;54.110;12.138;2023-04-28T09:42:32;101590.44;;;15.73;41.40
16481;BME280;44634;54.110;12.138;2023-04-28T09:45:00;101580.59;;;16.45;40.17
16481;BME280;44634;54.110;12.138;2023-04-28T09:47:29;101568.78;;;17.25;37.31
16481;BME280;44634;54.110;12.138;2023-04-28T09:50:00;101576.31;;;16.70;37.58
16481;BME280;44634;54.110;12.138;2023-04-28T09:52:28;101571.47;;;17.00;37.78
16481;BME280;44634;54.110;12.138;2023-04-28T09:54:57;101560.38;;;17.20;38.37
16481;BME280;44634;54.110;12.138;2023-04-28T09:57:29;101555.66;;;16.54;39.11
16481;BME280;44634;54.110;12.138;2023-04-28T09:59:58;101558.16;;;17.08;36.95
16481;BME280;44634;54.110;12.138;2023-04-28T10:02:26;101549.63;;;18.37;37.04
16481;BME280;44634;54.110;12.138;2023-04-28T10:04:57;101546.81;;;17.64;36.04
16481;BME280;44634;54.110;12.138;2023-04-28T10:07:26;101552.44;;;17.37;34.62
16481;BME280;44634;54.110;12.138;2023-04-28T10:09:57;101544.41;;;18.20;34.03
16481;BME280;44634;54.110;12.138;2023-04-28T10:12:25;101539.84;;;18.85;34.56
16481;BME280;44634;54.110;12.138;2023-04-28T10:14:53;101535.38;;;19.56;33.24
16481;BME280;44634;54.110;12.138;2023-04-28T10:17:22;101515.47;;;19.73;31.80
16481;BME280;44634;54.110;12.138;2023-04-28T10:19:53;101495.88;;;21.07;31.14
16481;BME280;44634;54.110;12.138;2023-04-28T10:22:32;101519.19;;;19.33;31.85
16481;BME280;44634;54.110;12.138;2023-04-28T10:25:25;101516.44;;;19.18;31.53
16481;BME280;44634;54.110;12.138;2023-04-28T10:27:55;101507.44;;;19.73;31.34
16481;BME280;44634;54.110;12.138;2023-04-28T10:30:25;101501.75;;;19.91;31.65
16481;BME280;44634;54.110;12.138;2023-04-28T10:33:23;101490.47;;;20.33;31.73
16481;BME280;44634;54.110;12.138;2023-04-28T10:35:55;101496.56;;;20.12;29.99
16481;BME280;44634;54.110;12.138;2023-04-28T10:38:23;101488.34;;;19.68;29.94
16481;BME280;44634;54.110;12.138;2023-04-28T10:40:52;101498.38;;;19.97;29.29
16481;BME280;44634;54.110;12.138;2023-04-28T10:43:35;101483.88;;;20.59;29.57
16481;BME280;44634;54.110;12.138;2023-04-28T10:46:06;101478.31;;;20.45;28.33
16481;BME280;44634;54.110;12.138;2023-04-28T10:49:04;101469.03;;;20.48;28.47
16481;BME280;44634;54.110;12.138;2023-04-28T10:51:32;101473.19;;;19.75;29.38
16481;BME280;44634;54.110;12.138;2023-04-28T10:54:21;101460.31;;;20.90;28.70
16481;BME280;44634;54.110;12.138;2023-04-28T10:57:21;101459.03;;;20.42;30.17
16481;BME280;44634;54.110;12.138;2023-04-28T10:59:49;101452.38;;;21.33;29.13
16481;BME280;44634;54.110;12.138;2023-04-28T11:02:37;101460.09;;;19.95;27.88
16481;BME280;44634;54.110;12.138;2023-04-28T11:05:11;101449.47;;;20.98;27.66
16481;BME280;44634;54.110;12.138;2023-04-28T11:07:40;101457.25;;;20.93;28.44
16481;BME280;44634;54.110;12.138;2023-04-28T11:10:08;101442.44;;;21.19;28.93
16481;BME280;44634;54.110;12.138;2023-04-28T11:16:01;101427.13;;;21.34;28.68
16481;BME280;44634;54.110;12.138;2023-04-28T11:18:31;101435.84;;;20.26;29.51
16481;BME280;44634;54.110;12.138;2023-04-28T11:21:04;101438.38;;;20.05;29.45
16481;BME280;44634;54.110;12.138;2023-04-28T11:23:32;101438.25;;;20.80;28.62
16481;BME280;44634;54.110;12.138;2023-04-28T11:26:00;101426.88;;;21.29;28.38
16481;BME280;44634;54.110;12.138;2023-04-28T11:28:30;101434.31;;;20.97;28.63
16481;BME280;44634;54.110;12.138;2023-04-28T11:31:09;101435.19;;;20.98;27.76
16481;BME280;44634;54.110;12.138;2023-04-28T11:33:38;101442.06;;;19.43;28.96
16481;BME280;44634;54.110;12.138;2023-04-28T11:36:21;101420.50;;;20.49;28.73
16481;BME280;44634;54.110;12.138;2023-04-28T11:38:49;101415.59;;;21.61;28.65
16481;BME280;44634;54.110;12.138;2023-04-28T11:41:16;101417.47;;;21.03;30.06
16481;BME280;44634;54.110;12.138;2023-04-28T11:43:46;101422.59;;;20.54;29.72
16481;BME280;44634;54.110;12.138;2023-04-28T11:46:18;101423.19;;;20.49;29.42
16481;BME280;44634;54.110;12.138;2023-04-28T11:48:46;101435.69;;;19.13;30.58
16481;BME280;44634;54.110;12.138;2023-04-28T11:51:31;101425.25;;;19.26;30.59
16481;BME280;44634;54.110;12.138;2023-04-28T11:53:59;101424.03;;;19.52;31.00
16481;BME280;44634;54.110;12.138;2023-04-28T11:56:28;101437.44;;;19.60;30.40
16481;BME280;44634;54.110;12.138;2023-04-28T11:59:04;101426.97;;;19.42;29.77
16481;BME280;44634;54.110;12.138;2023-04-28T12:01:34;101410.28;;;20.74;28.75
16481;BME280;44634;54.110;12.138;2023-04-28T12:04:10;101415.44;;;20.02;30.14
16481;BME280;44634;54.110;12.138;2023-04-28T12:06:40;101404.59;;;20.10;30.35
16481;BME280;44634;54.110;12.138;2023-04-28T12:09:14;101405.19;;;20.50;29.92
16481;BME280;44634;54.110;12.138;2023-04-28T12:11:55;101414.03;;;20.06;30.35
16481;BME280;44634;54.110;12.138;2023-04-28T12:14:25;101409.22;;;20.02;29.87
16481;BME280;44634;54.110;12.138;2023-04-28T12:16:53;101416.06;;;18.90;29.95
16481;BME280;44634;54.110;12.138;2023-04-28T12:19:20;101408.94;;;19.05;30.06
16481;BME280;44634;54.110;12.138;2023-04-28T12:21:59;101407.56;;;19.09;30.23
16481;BME280;44634;54.110;12.138;2023-04-28T12:24:27;101407.88;;;19.37;29.94
16481;BME280;44634;54.110;12.138;2023-04-28T12:27:13;101401.44;;;19.00;30.57
16481;BME280;44634;54.110;12.138;2023-04-28T12:29:43;101389.38;;;18.65;31.45
16481;BME280;44634;54.110;12.138;2023-04-28T12:32:13;101393.94;;;18.49;32.38
16481;BME280;44634;54.110;12.138;2023-04-28T12:34:41;101384.19;;;18.95;31.42
16481;BME280;44634;54.110;12.138;2023-04-28T12:37:10;101388.56;;;19.87;30.42
16481;BME280;44634;54.110;12.138;2023-04-28T12:39:40;101371.66;;;19.64;31.39
16481;BME280;44634;54.110;12.138;2023-04-28T12:42:08;101378.31;;;20.06;30.70
16481;BME280;44634;54.110;12.138;2023-04-28T12:44:37;101372.88;;;20.29;30.99
16481;BME280;44634;54.110;12.138;2023-04-28T12:47:08;101369.25;;;20.51;30.58
16481;BME280;44634;54.110;12.138;2023-04-28T12:49:37;101371.72;;;19.94;30.80
16481;BME280;44634;54.110;12.138;2023-04-28T12:52:05;101364.69;;;20.07;30.56